Time;durP1;ratioP1;P1;durP2;ratioP2;P2;SDS_P1;SDS_P2;PMS_P1;PMS_P2;Temp;Humidity;BMP_temperature;BMP_pressure;BME280_temperature;BME280_humidity;BME280_pressure;Samples;Min_cycle;Max_cycle;Signal;HPM_P1;HPM_P2
2023/03/16 00:00:13;;;;;;;76.50;24.90;;;-2.70;99.90;;;;;;5057889;28;20036;-83
2023/03/16 00:02:40;;;;;;;72.13;22.88;;;-2.70;99.90;;;;;;5057733;28;20032;-83
2023/03/16 00:05:07;;;;;;;70.30;23.52;;;-2.70;99.90;;;;;;5040687;28;20032;-83
2023/03/16 00:07:34;;;;;;;66.20;24.35;;;-2.70;99.90;;;;;;5057012;28;20102;-83
2023/03/16 00:10:00;;;;;;;74.85;26.70;;;-2.70;99.90;;;;;;5039462;28;20127;-83
2023/03/16 00:12:25;;;;;;;70.75;24.58;;;-2.80;99.90;;;;;;5057742;28;20028;-83
2023/03/16 00:14:51;;;;;;;75.18;24.25;;;-2.80;99.90;;;;;;5040990;28;20039;-82
2023/03/16 00:17:19;;;;;;;76.47;25.95;;;-2.70;99.90;;;;;;5057313;28;20135;-83
2023/03/16 00:19:53;;;;;;;80.13;27.27;;;-2.60;99.90;;;;;;5057245;28;20391;-83
2023/03/16 00:22:20;;;;;;;83.95;27.15;;;-2.60;99.90;;;;;;5075612;28;20491;-82
2023/03/16 00:24:46;;;;;;;87.85;29.45;;;-2.60;99.90;;;;;;5075373;28;20059;-83
2023/03/16 00:27:16;;;;;;;79.38;27.23;;;-2.50;99.90;;;;;;5057184;28;20068;-82
2023/03/16 00:29:47;;;;;;;86.22;28.33;;;-2.60;99.90;;;;;;5040394;28;20381;-83
2023/03/16 00:32:27;;;;;;;85.00;26.67;;;-2.60;99.90;;;;;;5040716;28;20029;-83
2023/03/16 00:34:52;;;;;;;86.90;27.13;;;-2.60;99.90;;;;;;5090721;28;20028;-83
2023/03/16 00:37:22;;;;;;;83.18;28.48;;;-2.60;99.90;;;;;;5039041;28;20047;-83
2023/03/16 00:39:49;;;;;;;88.18;29.48;;;-2.60;99.90;;;;;;5040451;28;20032;-82
2023/03/16 00:42:15;;;;;;;83.38;29.58;;;-2.50;99.90;;;;;;5074882;28;20487;-82
2023/03/16 00:44:42;;;;;;;92.57;30.15;;;-2.40;99.90;;;;;;5090542;28;20127;-83
2023/03/16 00:47:08;;;;;;;90.28;27.45;;;-2.30;99.90;;;;;;5040085;28;20074;-82
2023/03/16 00:49:35;;;;;;;88.80;28.88;;;-2.30;99.90;;;;;;5039834;28;20021;-83
2023/03/16 00:52:03;;;;;;;93.95;30.00;;;-2.30;99.90;;;;;;5039911;28;20032;-83
2023/03/16 00:54:31;;;;;;;99.15;29.70;;;-2.30;99.90;;;;;;5039890;28;20024;-82
2023/03/16 00:56:58;;;;;;;83.88;28.73;;;-2.20;99.90;;;;;;5039336;28;20027;-83
2023/03/16 00:59:25;;;;;;;101.72;29.58;;;-2.10;99.90;;;;;;5089081;28;20017;-83
2023/03/16 01:01:54;;;;;;;89.90;26.38;;;-2.10;99.90;;;;;;5039680;28;20059;-83
2023/03/16 01:04:21;;;;;;;79.93;26.60;;;-2.20;99.90;;;;;;5074542;28;20051;-83
2023/03/16 01:06:48;;;;;;;93.53;28.70;;;-2.20;99.90;;;;;;5040011;28;20024;-82
2023/03/16 01:09:14;;;;;;;99.82;29.52;;;-2.30;99.90;;;;;;5040176;28;20031;-82
2023/03/16 01:11:43;;;;;;;96.95;30.20;;;-2.40;99.90;;;;;;5090186;28;20032;-83
2023/03/16 01:14:10;;;;;;;96.80;29.00;;;-2.40;99.90;;;;;;5056488;28;20368;-83
2023/03/16 01:16:35;;;;;;;83.43;28.08;;;-2.40;99.90;;;;;;5039368;28;20036;-82
2023/03/16 01:19:02;;;;;;;116.53;32.08;;;-2.30;99.90;;;;;;5073991;28;20033;-83
2023/03/16 01:21:28;;;;;;;97.53;28.23;;;-2.30;99.90;;;;;;5039537;28;20071;-83
2023/03/16 01:23:54;;;;;;;108.85;30.75;;;-2.40;99.90;;;;;;5089944;28;20686;-83
2023/03/16 01:26:21;;;;;;;99.25;29.02;;;-2.40;99.90;;;;;;5089962;28;20032;-83
2023/03/16 01:28:48;;;;;;;90.82;28.60;;;-2.40;99.90;;;;;;5089864;28;20037;-83
2023/03/16 01:31:14;;;;;;;102.88;31.58;;;-2.40;99.90;;;;;;5039440;28;20025;-83
2023/03/16 01:33:42;;;;;;;97.97;31.60;;;-2.40;99.90;;;;;;5073872;28;20430;-83
2023/03/16 01:36:13;;;;;;;97.10;30.10;;;-2.50;99.90;;;;;;5055854;28;20024;-83
2023/03/16 01:38:59;;;;;;;104.57;32.00;;;-2.50;99.90;;;;;;5072647;28;20101;-82
2023/03/16 01:41:29;;;;;;;100.45;31.33;;;-2.60;99.90;;;;;;5088394;28;20715;-82
2023/03/16 01:43:57;;;;;;;101.10;31.52;;;-2.70;99.90;;;;;;5054700;28;20093;-82
2023/03/16 01:46:26;;;;;;;103.75;32.35;;;-2.70;99.90;;;;;;5088007;28;20036;-83
2023/03/16 01:49:18;;;;;;;108.03;33.42;;;-2.80;99.90;;;;;;5087631;28;20032;-82
2023/03/16 01:51:53;;;;;;;101.93;31.38;;;-2.70;99.90;;;;;;5088835;28;20518;-83
2023/03/16 01:54:33;;;;;;;103.22;29.90;;;-2.70;99.90;;;;;;5089034;28;20075;-83
2023/03/16 01:57:07;;;;;;;108.18;32.67;;;-2.70;99.90;;;;;;5039183;28;20020;-83
2023/03/16 01:59:43;;;;;;;104.93;30.50;;;-2.60;99.90;;;;;;5089208;28;20025;-82
2023/03/16 02:02:12;;;;;;;106.18;30.52;;;-2.60;99.90;;;;;;5039173;28;20076;-82
2023/03/16 02:05:01;;;;;;;107.57;32.67;;;-2.50;99.90;;;;;;5055257;28;20115;-83
2023/03/16 02:07:29;;;;;;;104.32;32.55;;;-2.50;99.90;;;;;;5038843;28;20056;-83
2023/03/16 02:09:59;;;;;;;103.60;33.10;;;-2.50;99.90;;;;;;5038443;28;20036;-83
2023/03/16 02:12:26;;;;;;;108.28;34.38;;;-2.50;99.90;;;;;;5038870;28;20040;-83
2023/03/16 02:14:54;;;;;;;93.55;29.98;;;-2.60;99.90;;;;;;5039393;28;20127;-83
2023/03/16 02:17:28;;;;;;;97.18;30.45;;;-2.60;99.90;;;;;;5039041;28;20388;-83
2023/03/16 02:20:08;;;;;;;88.15;28.15;;;-2.70;99.90;;;;;;5054941;28;20028;-83
2023/03/16 02:22:42;;;;;;;84.05;27.83;;;-2.70;99.90;;;;;;5039278;28;20035;-83
2023/03/16 02:25:09;;;;;;;78.97;26.27;;;-2.70;99.90;;;;;;5088886;28;20028;-83
2023/03/16 02:27:47;;;;;;;89.22;27.00;;;-2.80;99.90;;;;;;5071792;28;20119;-83
2023/03/16 02:30:15;;;;;;;90.63;28.15;;;-2.80;99.90;;;;;;5071508;28;20431;-83
2023/03/16 02:32:54;;;;;;;91.85;29.73;;;-2.80;99.90;;;;;;5040132;28;20021;-83
2023/03/16 02:35:21;;;;;;;97.35;29.83;;;-2.70;99.90;;;;;;5037919;28;20083;-82
2023/03/16 02:37:48;;;;;;;90.65;29.75;;;-2.60;99.90;;;;;;5087477;28;20082;-82
2023/03/16 02:40:22;;;;;;;92.00;31.27;;;-2.40;99.90;;;;;;5037885;28;20032;-83
2023/03/16 02:43:03;;;;;;;92.18;30.27;;;-2.30;99.90;;;;;;5088175;28;20036;-83
2023/03/16 02:45:35;;;;;;;101.35;31.23;;;-2.30;99.90;;;;;;5038456;28;20043;-83
2023/03/16 02:48:07;;;;;;;81.95;29.27;;;-2.40;99.90;;;;;;5071079;28;20024;-83
2023/03/16 02:50:33;;;;;;;89.90;28.05;;;-2.50;99.90;;;;;;5088262;28;20032;-83
2023/03/16 02:52:59;;;;;;;95.50;30.42;;;-2.50;99.90;;;;;;5088099;28;20074;-83
2023/03/16 02:55:24;;;;;;;102.97;29.58;;;-2.50;99.90;;;;;;5038002;28;20033;-83
2023/03/16 02:57:51;;;;;;;100.97;30.75;;;-2.60;99.90;;;;;;5088397;28;20544;-83
2023/03/16 03:00:18;;;;;;;96.43;30.10;;;-2.50;99.90;;;;;;5090515;28;20051;-83
2023/03/16 03:03:01;;;;;;;90.72;26.67;;;-2.60;99.90;;;;;;5092753;28;20119;-82
2023/03/16 03:05:26;;;;;;;90.75;25.85;;;-2.50;99.90;;;;;;5092701;28;20551;-83
2023/03/16 03:07:52;;;;;;;87.82;26.10;;;-2.50;99.90;;;;;;5042078;28;20116;-83
2023/03/16 03:10:18;;;;;;;84.50;27.42;;;-2.50;99.90;;;;;;5058458;28;20170;-83
2023/03/16 03:12:48;;;;;;;81.68;26.17;;;-2.50;99.90;;;;;;5041992;28;20115;-83
2023/03/16 03:15:15;;;;;;;79.22;26.08;;;-2.40;99.90;;;;;;5057991;28;20020;-83
2023/03/16 03:17:52;;;;;;;78.97;26.27;;;-2.40;99.90;;;;;;5043013;28;20036;-82
2023/03/16 03:20:20;;;;;;;78.70;24.63;;;-2.40;99.90;;;;;;5091916;28;20471;-83
2023/03/16 03:22:51;;;;;;;79.32;23.83;;;-2.40;99.90;;;;;;5091533;28;20032;-83
2023/03/16 03:25:21;;;;;;;76.88;23.10;;;-2.40;99.90;;;;;;5057794;28;20033;-83
2023/03/16 03:27:49;;;;;;;74.55;21.63;;;-2.30;99.90;;;;;;5091718;28;20043;-83
2023/03/16 03:30:20;;;;;;;68.95;20.95;;;-2.30;99.90;;;;;;5042278;28;20032;-83
2023/03/16 03:32:47;;;;;;;58.80;21.00;;;-2.30;99.90;;;;;;5042000;28;20024;-83
2023/03/16 03:35:14;;;;;;;66.32;20.02;;;-2.30;99.90;;;;;;5041884;28;20028;-83
2023/03/16 03:37:41;;;;;;;64.28;20.50;;;-2.20;99.90;;;;;;5058362;28;20032;-83
2023/03/16 03:40:10;;;;;;;60.80;19.75;;;-2.20;99.90;;;;;;5041043;28;20034;-83
2023/03/16 03:42:36;;;;;;;64.95;19.63;;;-2.10;99.90;;;;;;5025345;28;20447;-83
2023/03/16 03:45:05;;;;;;;63.00;19.80;;;-1.90;99.90;;;;;;5091975;28;20064;-82
2023/03/16 03:47:31;;;;;;;70.53;20.50;;;-1.90;99.90;;;;;;5041507;28;20029;-82
2023/03/16 03:49:57;;;;;;;65.00;22.30;;;-1.80;99.90;;;;;;5074310;28;20036;-83
2023/03/16 03:52:35;;;;;;;59.33;21.13;;;-1.80;99.90;;;;;;5091421;28;20021;-83
2023/03/16 03:55:01;;;;;;;66.57;23.75;;;-1.80;99.90;;;;;;5075345;28;20024;-83
2023/03/16 03:57:27;;;;;;;73.20;23.02;;;-1.70;99.90;;;;;;5040978;28;20115;-83
2023/03/16 03:59:52;;;;;;;73.93;24.23;;;-1.80;99.90;;;;;;5040559;28;20079;-83
2023/03/16 04:02:24;;;;;;;;;;;-1.80;99.90;;;;;;5058709;28;20044;-83
2023/03/16 04:04:53;;;;;;;79.95;24.05;;;-1.70;99.90;;;;;;5090368;28;19934;-83
2023/03/16 04:07:18;;;;;;;74.97;24.25;;;-1.80;99.90;;;;;;5056866;28;20036;-83
2023/03/16 04:09:45;;;;;;;83.38;25.40;;;-1.80;99.90;;;;;;5090233;28;20020;-82
2023/03/16 04:12:21;;;;;;;79.75;26.13;;;-1.80;99.90;;;;;;5041543;28;20035;-83
2023/03/16 04:14:47;;;;;;;78.25;25.38;;;-1.80;99.90;;;;;;5040294;28;20476;-83
2023/03/16 04:17:14;;;;;;;75.75;24.13;;;-1.80;99.90;;;;;;5040263;28;20036;-83
2023/03/16 04:19:41;;;;;;;80.93;26.45;;;-1.80;99.90;;;;;;5090555;28;20544;-83
2023/03/16 04:22:12;;;;;;;78.00;25.15;;;-1.80;99.90;;;;;;5041074;28;20032;-83
2023/03/16 04:24:39;;;;;;;84.97;25.38;;;-1.80;99.90;;;;;;5040529;28;20059;-83
2023/03/16 04:27:05;;;;;;;80.60;24.67;;;-1.80;99.90;;;;;;5090407;28;20032;-82
2023/03/16 04:29:31;;;;;;;91.18;25.15;;;-1.70;99.90;;;;;;5090753;28;20115;-83
2023/03/16 04:31:58;;;;;;;79.32;25.63;;;-1.80;99.90;;;;;;5057601;28;20111;-83
2023/03/16 04:34:25;;;;;;;83.05;25.30;;;-1.70;99.90;;;;;;5040832;28;20036;-83
2023/03/16 04:36:55;;;;;;;76.38;25.42;;;-1.60;99.90;;;;;;5041375;28;20028;-82
2023/03/16 04:39:21;;;;;;;84.53;27.38;;;-1.70;99.90;;;;;;5040884;28;20035;-83
2023/03/16 04:41:48;;;;;;;76.03;25.38;;;-1.80;99.90;;;;;;5041123;28;20075;-82
2023/03/16 04:44:19;;;;;;;86.25;26.48;;;-1.80;99.90;;;;;;5090724;28;20392;-82
2023/03/16 04:46:45;;;;;;;96.70;27.88;;;-1.80;99.90;;;;;;5056971;28;20039;-83
2023/03/16 04:49:11;;;;;;;87.35;27.20;;;-1.80;99.90;;;;;;5040127;28;20024;-82
2023/03/16 04:51:39;;;;;;;87.32;27.73;;;-1.80;99.90;;;;;;5090283;28;20076;-83
2023/03/16 04:54:08;;;;;;;96.72;29.42;;;-1.90;99.90;;;;;;5040744;28;20031;-82
2023/03/16 04:56:40;;;;;;;89.07;29.48;;;-1.90;99.90;;;;;;5040411;28;20107;-80
2023/03/16 04:59:09;;;;;;;107.43;31.27;;;-1.90;99.90;;;;;;5040227;28;20077;-83
2023/03/16 05:01:50;;;;;;;92.88;28.80;;;-2.00;99.90;;;;;;5090070;28;20070;-83
2023/03/16 05:04:16;;;;;;;90.43;29.73;;;-1.90;99.90;;;;;;5040136;28;20040;-83
2023/03/16 05:06:47;;;;;;;97.90;31.13;;;-1.90;99.90;;;;;;5039906;28;20081;-83
2023/03/16 05:09:14;;;;;;;116.10;30.55;;;-1.70;99.90;;;;;;5089930;28;20028;-82
2023/03/16 05:11:39;;;;;;;105.75;31.02;;;-1.80;99.90;;;;;;5089894;28;20059;-82
2023/03/16 05:14:08;;;;;;;105.68;32.35;;;-1.70;99.90;;;;;;5089525;28;20028;-83
2023/03/16 05:16:54;;;;;;;98.53;30.70;;;-1.80;99.90;;;;;;5071080;28;20033;-82
2023/03/16 05:19:21;;;;;;;115.03;32.90;;;-1.80;99.90;;;;;;5056075;28;20024;-82
2023/03/16 05:21:47;;;;;;;104.03;31.23;;;-1.80;99.90;;;;;;5039145;28;20042;-82
2023/03/16 05:24:13;;;;;;;98.93;29.95;;;-1.80;99.90;;;;;;5089174;28;20535;-82
2023/03/16 05:26:38;;;;;;;100.22;32.70;;;-1.80;99.90;;;;;;5089727;28;20032;-82
2023/03/16 05:29:08;;;;;;;101.55;31.42;;;-1.70;99.90;;;;;;5039820;28;20032;-82
2023/03/16 05:31:36;;;;;;;112.30;36.13;;;-1.80;99.90;;;;;;5089327;28;20135;-82
2023/03/16 05:34:07;;;;;;;106.93;32.80;;;-1.70;99.90;;;;;;5090114;28;20507;-82
2023/03/16 05:36:34;;;;;;;98.20;32.15;;;-1.70;99.90;;;;;;5089808;28;20020;-85
2023/03/16 05:39:07;;;;;;;102.85;33.75;;;-1.70;99.90;;;;;;5040319;28;20028;-85
2023/03/16 05:41:39;;;;;;;118.65;36.65;;;-1.70;99.90;;;;;;5073806;28;20038;-85
2023/03/16 05:44:33;;;;;;;100.93;32.50;;;-1.70;99.90;;;;;;5074292;28;20052;-85
2023/03/16 05:47:21;;;;;;;99.32;30.48;;;-1.80;99.90;;;;;;5065425;28;20449;-85
2023/03/16 05:49:53;;;;;;;113.65;31.25;;;-1.80;99.90;;;;;;5040303;28;20398;-85
2023/03/16 05:52:30;;;;;;;108.32;33.15;;;-1.70;99.90;;;;;;5041108;28;20028;-85
2023/03/16 05:54:59;;;;;;;106.88;33.17;;;-1.70;99.90;;;;;;5039928;28;20108;-85
2023/03/16 05:57:25;;;;;;;100.88;33.17;;;-1.70;99.90;;;;;;5089700;28;20056;-85
2023/03/16 05:59:52;;;;;;;101.65;32.05;;;-1.80;99.90;;;;;;5039207;28;20047;-86
2023/03/16 06:02:19;;;;;;;94.90;31.65;;;-1.70;99.90;;;;;;5039274;28;20658;-85
2023/03/16 06:04:45;;;;;;;116.18;36.08;;;-1.70;99.90;;;;;;5089411;28;20662;-85
2023/03/16 06:07:11;;;;;;;98.72;33.42;;;-1.60;99.90;;;;;;5039416;28;20025;-85
2023/03/16 06:09:37;;;;;;;108.45;35.10;;;-1.60;99.90;;;;;;5089729;28;20070;-85
2023/03/16 06:12:09;;;;;;;105.47;32.58;;;-1.60;99.90;;;;;;5040274;28;20840;-85
2023/03/16 06:14:35;;;;;;;103.13;32.63;;;-1.40;99.90;;;;;;5039211;28;20402;-85
2023/03/16 06:17:01;;;;;;;113.68;35.97;;;-1.40;99.90;;;;;;5055463;28;20020;-85
2023/03/16 06:19:28;;;;;;;109.95;34.97;;;-1.40;99.90;;;;;;5038606;28;20029;-85
2023/03/16 06:21:58;;;;;;;111.72;35.95;;;-1.30;99.90;;;;;;5039572;28;20028;-85
2023/03/16 06:24:24;;;;;;;129.50;39.15;;;-1.30;99.90;;;;;;5055257;28;20075;-85
2023/03/16 06:26:50;;;;;;;145.57;43.97;;;-1.30;99.90;;;;;;5039098;28;20472;-85
2023/03/16 06:29:17;;;;;;;121.82;40.28;;;-1.20;99.90;;;;;;5088665;28;20417;-85
2023/03/16 06:31:44;;;;;;;116.13;36.50;;;-1.20;99.90;;;;;;5038618;28;20035;-85
2023/03/16 06:34:10;;;;;;;113.70;35.28;;;-1.20;99.90;;;;;;5087329;28;20071;-85
2023/03/16 06:36:38;;;;;;;123.88;37.95;;;-1.20;99.90;;;;;;5055237;28;20031;-85
2023/03/16 06:39:05;;;;;;;116.88;37.80;;;-1.20;99.90;;;;;;5038929;28;20024;-85
2023/03/16 06:41:38;;;;;;;118.00;40.00;;;-1.20;99.90;;;;;;5088771;28;20035;-85
2023/03/16 06:44:05;;;;;;;117.93;39.38;;;-1.20;99.90;;;;;;5072602;28;20040;-85
2023/03/16 06:46:33;;;;;;;112.63;37.50;;;-1.10;99.90;;;;;;5055389;28;20422;-85
2023/03/16 06:49:01;;;;;;;105.97;37.20;;;-1.10;99.90;;;;;;5038873;28;20506;-86
2023/03/16 06:51:27;;;;;;;110.55;40.08;;;-0.90;99.90;;;;;;5038234;28;20025;-85
2023/03/16 06:53:53;;;;;;;109.82;37.30;;;-0.90;99.90;;;;;;5088622;28;20365;-85
2023/03/16 06:56:19;;;;;;;117.95;38.85;;;-0.90;99.90;;;;;;5036450;28;20055;-84
2023/03/16 06:58:46;;;;;;;107.65;37.50;;;-0.90;99.90;;;;;;5054874;28;20040;-85
2023/03/16 07:01:11;;;;;;;108.63;36.42;;;-0.80;99.90;;;;;;5072813;28;20020;-85
2023/03/16 07:03:43;;;;;;;106.55;38.67;;;-0.70;99.90;;;;;;5038166;28;20032;-84
2023/03/16 07:06:17;;;;;;;94.57;32.95;;;-0.70;99.90;;;;;;5055665;28;20025;-85
2023/03/16 07:08:43;;;;;;;104.43;35.22;;;-0.60;99.90;;;;;;5054787;28;20035;-85
2023/03/16 07:11:09;;;;;;;99.68;33.70;;;-0.60;99.90;;;;;;5088335;28;20793;-85
2023/03/16 07:13:36;;;;;;;101.68;34.20;;;-0.50;99.90;;;;;;5054380;28;20025;-85
2023/03/16 07:16:03;;;;;;;94.72;34.80;;;-0.40;99.90;;;;;;5054919;28;20025;-85
2023/03/16 07:18:30;;;;;;;97.38;32.85;;;-0.40;99.90;;;;;;5088212;28;20123;-85
2023/03/16 07:20:57;;;;;;;92.35;33.83;;;-0.30;99.90;;;;;;5038073;28;20141;-86
2023/03/16 07:23:31;;;;;;;99.13;33.60;;;-0.30;99.90;;;;;;5038374;28;20031;-85
2023/03/16 07:26:02;;;;;;;90.88;31.55;;;-0.20;99.90;;;;;;5088222;28;20472;-85
2023/03/16 07:28:29;;;;;;;91.55;33.53;;;-0.20;99.90;;;;;;5037829;28;20032;-85
2023/03/16 07:30:57;;;;;;;96.50;33.58;;;-0.10;99.90;;;;;;5038006;28;20070;-84
2023/03/16 07:33:23;;;;;;;81.72;31.00;;;0.00;99.90;;;;;;5055003;28;20360;-85
2023/03/16 07:35:50;;;;;;;87.90;30.83;;;0.00;99.90;;;;;;5038017;28;20020;-85
2023/03/16 07:38:16;;;;;;;82.50;29.52;;;0.10;99.90;;;;;;5087809;28;20146;-85
2023/03/16 07:40:42;;;;;;;78.43;30.98;;;0.10;99.90;;;;;;5037488;28;20065;-85
2023/03/16 07:43:14;;;;;;;73.22;28.05;;;0.20;99.90;;;;;;5088309;28;20063;-85
2023/03/16 07:45:49;;;;;;;73.57;29.88;;;0.20;99.90;;;;;;5040392;28;20024;-86
2023/03/16 07:48:16;;;;;;;74.95;25.77;;;0.20;99.90;;;;;;5042017;28;20115;-85
2023/03/16 07:50:49;;;;;;;67.57;27.38;;;0.20;99.90;;;;;;5058327;28;20028;-85
2023/03/16 07:53:15;;;;;;;74.45;28.17;;;0.30;99.90;;;;;;5092138;28;20024;-85
2023/03/16 07:55:44;;;;;;;73.82;29.45;;;0.30;99.90;;;;;;5041649;28;20017;-84
2023/03/16 07:58:11;;;;;;;67.03;27.85;;;0.30;99.90;;;;;;5091333;28;20040;-85
2023/03/16 08:00:39;;;;;;;64.55;25.98;;;0.40;99.90;;;;;;5057512;28;20025;-84
2023/03/16 08:03:05;;;;;;;69.70;28.73;;;0.40;99.90;;;;;;5040868;28;20112;-85
2023/03/16 08:05:31;;;;;;;58.28;25.63;;;0.40;99.90;;;;;;5090714;28;20394;-84
2023/03/16 08:08:00;;;;;;;74.07;28.40;;;0.40;99.90;;;;;;5041445;28;20528;-85
2023/03/16 08:10:28;;;;;;;60.80;25.15;;;0.50;99.90;;;;;;5040945;28;20032;-85
2023/03/16 08:13:03;;;;;;;58.33;24.40;;;0.50;99.90;;;;;;5042088;28;20024;-85
2023/03/16 08:15:32;;;;;;;53.83;23.20;;;0.50;99.90;;;;;;5056899;28;20039;-85
2023/03/16 08:18:05;;;;;;;61.70;25.65;;;0.60;99.90;;;;;;5041709;28;20040;-85
2023/03/16 08:20:32;;;;;;;55.30;25.10;;;0.60;99.90;;;;;;5039980;28;20537;-85
2023/03/16 08:22:58;;;;;;;52.67;24.50;;;0.60;99.90;;;;;;5040788;28;20024;-84
2023/03/16 08:25:27;;;;;;;56.92;25.10;;;0.60;99.90;;;;;;5041270;28;20399;-84
2023/03/16 08:28:01;;;;;;;63.08;28.33;;;0.70;99.90;;;;;;5041643;28;20059;-85
2023/03/16 08:30:26;;;;;;;49.65;24.05;;;0.80;99.90;;;;;;5090903;28;20464;-86
2023/03/16 08:33:09;;;;;;;51.25;24.20;;;0.90;99.90;;;;;;5043061;28;20033;-85
2023/03/16 08:35:35;;;;;;;53.83;25.08;;;0.90;99.90;;;;;;5040703;28;20039;-86
2023/03/16 08:38:01;;;;;;;44.88;22.35;;;1.00;99.90;;;;;;5056955;28;20063;-85
2023/03/16 08:40:28;;;;;;;45.78;20.88;;;1.10;99.90;;;;;;5039858;28;20082;-85
2023/03/16 08:42:54;;;;;;;44.53;21.10;;;1.20;99.90;;;;;;5056525;28;20060;-85
2023/03/16 08:45:22;;;;;;;45.65;22.85;;;1.20;99.90;;;;;;5040378;28;20130;-85
2023/03/16 08:47:49;;;;;;;37.90;19.73;;;1.20;99.90;;;;;;5040352;28;20070;-85
2023/03/16 08:50:15;;;;;;;45.30;19.40;;;1.40;99.90;;;;;;5039712;28;20112;-85
2023/03/16 08:52:41;;;;;;;32.58;17.20;;;1.40;99.90;;;;;;5056802;28;20095;-85
2023/03/16 08:55:09;;;;;;;33.88;18.45;;;1.50;99.90;;;;;;5039851;28;20024;-86
2023/03/16 08:57:37;;;;;;;36.13;18.77;;;1.60;99.90;;;;;;5039591;28;20062;-87
2023/03/16 09:00:11;;;;;;;34.17;16.92;;;2.10;99.90;;;;;;5039841;28;20068;-85
2023/03/16 09:02:39;;;;;;;30.48;17.55;;;2.80;99.90;;;;;;5040358;28;20063;-86
2023/03/16 09:05:07;;;;;;;23.67;14.07;;;3.50;99.90;;;;;;5040432;28;20037;-86
2023/03/16 09:07:35;;;;;;;24.65;14.82;;;3.80;99.90;;;;;;5039960;28;20131;-86
2023/03/16 09:10:04;;;;;;;27.77;14.95;;;3.80;99.90;;;;;;5039546;28;20033;-86
2023/03/16 09:12:31;;;;;;;26.05;13.90;;;4.00;99.90;;;;;;5073132;28;20055;-86
2023/03/16 09:14:57;;;;;;;20.90;13.70;;;4.00;99.90;;;;;;5039908;28;20028;-86
2023/03/16 09:17:23;;;;;;;24.70;14.02;;;4.40;99.90;;;;;;5056976;28;20041;-86
2023/03/16 09:19:49;;;;;;;28.00;15.32;;;4.60;99.90;;;;;;5056987;28;20036;-85
2023/03/16 09:22:15;;;;;;;21.45;13.02;;;4.40;99.90;;;;;;5040072;28;20487;-86
2023/03/16 09:24:41;;;;;;;24.40;13.70;;;4.10;99.90;;;;;;5090609;28;20037;-86
2023/03/16 09:27:07;;;;;;;21.27;12.88;;;3.90;99.90;;;;;;5039836;28;20035;-86
2023/03/16 09:29:33;;;;;;;23.77;13.75;;;3.80;99.90;;;;;;5039976;28;20551;-86
2023/03/16 09:31:58;;;;;;;22.20;12.18;;;3.60;99.90;;;;;;5040130;28;20032;-86
2023/03/16 09:34:24;;;;;;;23.02;13.35;;;3.70;99.90;;;;;;5056474;28;20095;-86
2023/03/16 09:36:50;;;;;;;22.55;13.18;;;3.70;99.90;;;;;;5056094;28;20033;-86
2023/03/16 09:39:34;;;;;;;21.85;13.43;;;3.90;99.90;;;;;;5039231;28;20090;-86
2023/03/16 09:42:16;;;;;;;22.55;13.90;;;4.30;99.90;;;;;;5039361;28;20115;-86
2023/03/16 09:44:58;;;;;;;21.83;13.88;;;4.70;99.90;;;;;;5039558;28;20036;-87
2023/03/16 09:47:28;;;;;;;18.88;12.00;;;5.00;99.90;;;;;;5039761;28;20032;-86
2023/03/16 09:49:57;;;;;;;21.50;13.68;;;5.20;99.90;;;;;;5039314;28;20365;-86
2023/03/16 09:52:50;;;;;;;21.88;13.13;;;5.20;99.90;;;;;;5039278;28;20034;-86
2023/03/16 09:55:28;;;;;;;20.92;11.60;;;5.50;99.90;;;;;;5072616;28;20025;-85
2023/03/16 09:57:56;;;;;;;17.95;11.35;;;5.90;99.90;;;;;;5039056;28;20036;-86
2023/03/16 10:00:26;;;;;;;17.90;11.00;;;6.30;99.90;;;;;;5038723;28;20090;-86
2023/03/16 10:03:23;;;;;;;18.80;11.85;;;6.50;99.90;;;;;;5039353;28;20068;-86
2023/03/16 10:05:59;;;;;;;18.60;12.30;;;6.90;99.90;;;;;;5072245;28;20117;-84
2023/03/16 10:08:39;;;;;;;16.55;10.50;;;7.20;99.90;;;;;;5038417;28;20514;-83
2023/03/16 10:11:53;;;;;;;19.45;11.13;;;6.70;99.90;;;;;;5038664;28;20480;-83
2023/03/16 10:14:29;;;;;;;16.42;10.48;;;6.50;99.90;;;;;;5059963;28;20037;-83
2023/03/16 10:17:10;;;;;;;19.80;10.38;;;6.30;99.90;;;;;;5071770;28;20028;-83
2023/03/16 10:19:42;;;;;;;16.03;9.30;;;6.30;99.90;;;;;;5055278;28;20400;-83
2023/03/16 10:22:20;;;;;;;15.07;10.25;;;6.10;99.90;;;;;;5055257;28;20041;-83
2023/03/16 10:25:01;;;;;;;17.20;9.98;;;6.40;99.90;;;;;;5055286;28;20036;-83
2023/03/16 10:27:33;;;;;;;15.40;10.17;;;6.50;99.90;;;;;;5071975;28;20038;-85
2023/03/16 10:30:01;;;;;;;13.75;9.05;;;6.90;99.90;;;;;;5038424;28;20039;-85
2023/03/16 10:32:33;;;;;;;17.40;9.45;;;6.80;99.90;;;;;;5055160;28;20025;-85
2023/03/16 10:35:06;;;;;;;13.48;9.02;;;6.80;99.90;;;;;;5055306;28;20029;-85
2023/03/16 10:37:32;;;;;;;14.25;9.82;;;6.90;99.90;;;;;;5055173;28;20040;-85
2023/03/16 10:39:59;;;;;;;13.27;9.18;;;6.70;99.90;;;;;;5054991;28;20120;-85
2023/03/16 10:42:26;;;;;;;14.65;8.85;;;7.00;99.90;;;;;;5054947;28;20024;-85
2023/03/16 10:44:58;;;;;;;14.02;9.73;;;7.00;99.90;;;;;;5054920;28;20069;-85
2023/03/16 10:47:30;;;;;;;20.30;10.25;;;7.10;99.90;;;;;;5071739;28;20033;-85
2023/03/16 10:49:56;;;;;;;14.45;9.32;;;7.10;99.90;;;;;;5038268;28;20081;-85
2023/03/16 10:52:33;;;;;;;16.10;9.40;;;7.20;99.90;;;;;;5087856;28;20111;-83
2023/03/16 10:55:28;;;;;;;13.10;9.52;;;7.00;99.90;;;;;;5054923;28;20028;-86
2023/03/16 10:57:55;;;;;;;16.10;9.93;;;7.00;99.90;;;;;;5054552;28;20036;-83
2023/03/16 11:00:26;;;;;;;16.05;9.77;;;7.20;99.90;;;;;;5054733;28;20099;-84
2023/03/16 11:02:54;;;;;;;12.77;8.68;;;7.60;99.90;;;;;;5054739;28;20032;-83
2023/03/16 11:05:31;;;;;;;12.00;8.63;;;7.90;99.90;;;;;;5055071;28;20036;-83
2023/03/16 11:07:59;;;;;;;14.32;9.45;;;7.60;99.90;;;;;;5054720;28;20033;-84
2023/03/16 11:10:37;;;;;;;16.48;9.13;;;7.80;99.90;;;;;;5071094;28;20029;-84
2023/03/16 11:13:17;;;;;;;17.42;10.57;;;7.70;99.90;;;;;;5072529;28;20032;-84
2023/03/16 11:15:49;;;;;;;17.58;9.82;;;7.70;99.90;;;;;;5088147;28;20036;-84
2023/03/16 11:18:21;;;;;;;17.65;9.25;;;7.80;99.90;;;;;;5054729;28;20115;-84
2023/03/16 11:20:47;;;;;;;14.60;9.63;;;8.30;99.90;;;;;;5072229;28;20028;-84
2023/03/16 11:23:17;;;;;;;13.57;8.70;;;8.50;99.90;;;;;;5058315;28;20028;-84
2023/03/16 11:25:47;;;;;;;12.40;8.45;;;8.60;99.90;;;;;;5076805;28;20497;-84
2023/03/16 11:28:23;;;;;;;15.93;9.00;;;9.10;99.90;;;;;;5058490;28;20028;-85
2023/03/16 11:30:55;;;;;;;15.57;8.52;;;9.50;99.90;;;;;;5076314;28;20025;-84
2023/03/16 11:33:21;;;;;;;16.17;9.35;;;9.80;99.90;;;;;;5092098;28;20033;-84
2023/03/16 11:35:54;;;;;;;16.10;8.65;;;9.60;99.90;;;;;;5058398;28;20108;-85
2023/03/16 11:38:34;;;;;;;11.55;7.72;;;9.90;99.90;;;;;;5091422;28;20047;-84
2023/03/16 11:41:18;;;;;;;11.10;7.40;;;9.60;99.90;;;;;;5058209;28;20040;-85
2023/03/16 11:44:11;;;;;;;9.45;6.72;;;10.30;99.90;;;;;;5058516;28;20029;-85
2023/03/16 11:46:54;;;;;;;14.70;7.22;;;10.80;99.90;;;;;;5058094;28;20032;-84
2023/03/16 11:49:48;;;;;;;9.45;5.78;;;10.50;99.90;;;;;;5057767;28;20036;-84
2023/03/16 11:52:48;;;;;;;10.48;6.78;;;9.90;99.90;;;;;;5041363;28;20025;-84
2023/03/16 11:55:21;;;;;;;10.98;6.78;;;10.00;99.90;;;;;;5040035;28;20094;-85
2023/03/16 11:57:52;;;;;;;8.25;6.53;;;10.20;99.90;;;;;;5057827;28;20021;-84
2023/03/16 12:00:43;;;;;;;13.82;6.82;;;10.00;99.90;;;;;;5057536;28;20154;-84
2023/03/16 12:03:35;;;;;;;10.10;6.40;;;10.00;99.90;;;;;;5074542;28;20688;-85
2023/03/16 12:06:27;;;;;;;9.38;5.60;;;10.20;99.90;;;;;;5057991;28;20025;-85
2023/03/16 12:09:17;;;;;;;;;;;10.20;99.90;;;;;;5058148;28;20560;-85
2023/03/16 12:11:55;;;;;;;9.68;5.65;;;10.00;99.90;;;;;;5091372;28;19909;-85
2023/03/16 12:14:39;;;;;;;8.25;6.60;;;10.00;99.90;;;;;;5074277;28;20028;-85
2023/03/16 12:17:08;;;;;;;8.93;5.47;;;9.50;99.90;;;;;;5057531;28;20041;-85
2023/03/16 12:19:52;;;;;;;10.23;5.60;;;9.60;99.90;;;;;;5073944;28;20091;-85
2023/03/16 12:22:33;;;;;;;7.40;5.85;;;9.60;99.90;;;;;;5057708;28;20150;-85
2023/03/16 12:25:00;;;;;;;10.18;6.97;;;9.30;99.90;;;;;;5073736;28;20032;-85
2023/03/16 12:27:30;;;;;;;9.20;5.90;;;9.00;99.90;;;;;;5057468;28;20044;-85
2023/03/16 12:30:11;;;;;;;8.60;5.90;;;9.30;99.90;;;;;;5057369;28;20028;-85
2023/03/16 12:32:44;;;;;;;;;;;9.50;99.90;;;;;;5073402;28;20067;-85
2023/03/16 12:35:25;;;;;;;13.65;7.30;;;9.70;99.90;;;;;;5057138;28;20473;-84
2023/03/16 12:38:16;;;;;;;8.70;5.50;;;9.90;99.90;;;;;;5057135;28;20040;-84
2023/03/16 12:41:01;;;;;;;14.02;5.82;;;9.50;99.90;;;;;;5073555;28;20396;-85
2023/03/16 12:43:41;;;;;;;10.13;6.20;;;9.40;99.90;;;;;;5057160;28;20063;-84
2023/03/16 12:46:17;;;;;;;9.02;5.55;;;9.60;99.90;;;;;;5056987;28;20476;-85
2023/03/16 12:48:55;;;;;;;7.88;4.75;;;9.40;99.90;;;;;;5073340;28;20500;-85